sensor_id;sensor_type;location;lat;lon;timestamp;P1;durP1;ratioP1;P2;durP2;ratioP2
17886;SDS011;9069;52.044;7.472;2023-07-28T00:00:42;2.17;;;1.95;;
17886;SDS011;9069;52.044;7.472;2023-07-28T00:03:09;4.28;;;1.90;;
17886;SDS011;9069;52.044;7.472;2023-07-28T00:05:36;2.38;;;2.15;;
17886;SDS011;9069;52.044;7.472;2023-07-28T00:08:03;2.83;;;1.98;;
17886;SDS011;9069;52.044;7.472;2023-07-28T00:10:30;3.35;;;1.90;;
17886;SDS011;9069;52.044;7.472;2023-07-28T00:12:58;3.22;;;2.20;;
17886;SDS011;9069;52.044;7.472;2023-07-28T00:15:25;2.20;;;1.90;;
17886;SDS011;9069;52.044;7.472;2023-07-28T00:17:52;1.98;;;1.77;;
17886;SDS011;9069;52.044;7.472;2023-07-28T00:20:19;2.45;;;1.73;;
17886;SDS011;9069;52.044;7.472;2023-07-28T00:22:46;2.45;;;2.10;;
17886;SDS011;9069;52.044;7.472;2023-07-28T00:25:12;2.10;;;1.60;;
17886;SDS011;9069;52.044;7.472;2023-07-28T00:27:39;2.55;;;1.80;;
17886;SDS011;9069;52.044;7.472;2023-07-28T00:30:06;1.83;;;1.67;;
17886;SDS011;9069;52.044;7.472;2023-07-28T00:32:33;1.83;;;1.50;;
17886;SDS011;9069;52.044;7.472;2023-07-28T00:35:01;2.10;;;1.90;;
17886;SDS011;9069;52.044;7.472;2023-07-28T00:37:29;2.65;;;1.80;;
17886;SDS011;9069;52.044;7.472;2023-07-28T00:39:55;1.75;;;1.65;;
17886;SDS011;9069;52.044;7.472;2023-07-28T00:42:28;1.73;;;1.60;;
17886;SDS011;9069;52.044;7.472;2023-07-28T00:44:55;1.73;;;1.63;;
17886;SDS011;9069;52.044;7.472;2023-07-28T00:47:21;1.50;;;1.40;;
17886;SDS011;9069;52.044;7.472;2023-07-28T00:49:48;1.85;;;1.60;;
17886;SDS011;9069;52.044;7.472;2023-07-28T00:52:15;1.60;;;1.50;;
17886;SDS011;9069;52.044;7.472;2023-07-28T00:54:42;3.28;;;1.73;;
17886;SDS011;9069;52.044;7.472;2023-07-28T00:57:09;2.28;;;1.95;;
17886;SDS011;9069;52.044;7.472;2023-07-28T00:59:36;8.93;;;2.33;;
17886;SDS011;9069;52.044;7.472;2023-07-28T01:02:03;2.13;;;1.80;;
17886;SDS011;9069;52.044;7.472;2023-07-28T01:04:30;2.42;;;1.95;;
17886;SDS011;9069;52.044;7.472;2023-07-28T01:07:01;2.67;;;1.90;;
17886;SDS011;9069;52.044;7.472;2023-07-28T01:09:42;3.42;;;1.85;;
17886;SDS011;9069;52.044;7.472;2023-07-28T01:12:13;2.95;;;2.00;;
17886;SDS011;9069;52.044;7.472;2023-07-28T01:14:39;2.25;;;1.95;;
17886;SDS011;9069;52.044;7.472;2023-07-28T01:17:06;2.60;;;2.05;;
17886;SDS011;9069;52.044;7.472;2023-07-28T01:19:33;2.17;;;1.85;;
17886;SDS011;9069;52.044;7.472;2023-07-28T01:27:25;1.95;;;1.77;;
17886;SDS011;9069;52.044;7.472;2023-07-28T01:29:53;2.78;;;1.95;;
17886;SDS011;9069;52.044;7.472;2023-07-28T01:32:20;2.17;;;1.98;;
17886;SDS011;9069;52.044;7.472;2023-07-28T01:34:47;2.00;;;1.80;;
17886;SDS011;9069;52.044;7.472;2023-07-28T01:37:13;2.88;;;2.10;;
17886;SDS011;9069;52.044;7.472;2023-07-28T01:39:41;1.90;;;1.70;;
17886;SDS011;9069;52.044;7.472;2023-07-28T01:42:08;3.63;;;1.67;;
17886;SDS011;9069;52.044;7.472;2023-07-28T01:44:34;2.35;;;1.90;;
17886;SDS011;9069;52.044;7.472;2023-07-28T01:47:01;2.47;;;1.63;;
17886;SDS011;9069;52.044;7.472;2023-07-28T01:49:28;1.92;;;1.75;;
17886;SDS011;9069;52.044;7.472;2023-07-28T01:51:55;2.22;;;1.95;;
17886;SDS011;9069;52.044;7.472;2023-07-28T01:54:21;2.38;;;2.03;;
17886;SDS011;9069;52.044;7.472;2023-07-28T01:56:48;1.75;;;1.63;;
17886;SDS011;9069;52.044;7.472;2023-07-28T01:59:15;2.05;;;1.85;;
17886;SDS011;9069;52.044;7.472;2023-07-28T02:01:42;2.13;;;1.70;;
17886;SDS011;9069;52.044;7.472;2023-07-28T02:04:09;2.33;;;1.98;;
17886;SDS011;9069;52.044;7.472;2023-07-28T02:06:36;2.33;;;2.13;;
17886;SDS011;9069;52.044;7.472;2023-07-28T02:09:03;2.83;;;2.28;;
17886;SDS011;9069;52.044;7.472;2023-07-28T02:11:30;3.22;;;2.63;;
17886;SDS011;9069;52.044;7.472;2023-07-28T02:13:57;3.10;;;2.28;;
17886;SDS011;9069;52.044;7.472;2023-07-28T02:16:24;3.42;;;3.13;;
17886;SDS011;9069;52.044;7.472;2023-07-28T02:18:54;3.03;;;2.47;;
17886;SDS011;9069;52.044;7.472;2023-07-28T02:21:20;2.90;;;2.60;;
17886;SDS011;9069;52.044;7.472;2023-07-28T02:23:48;4.43;;;2.65;;
17886;SDS011;9069;52.044;7.472;2023-07-28T02:26:15;3.38;;;2.88;;
17886;SDS011;9069;52.044;7.472;2023-07-28T02:28:42;3.10;;;2.60;;
17886;SDS011;9069;52.044;7.472;2023-07-28T02:31:08;3.40;;;3.00;;
17886;SDS011;9069;52.044;7.472;2023-07-28T02:33:35;3.50;;;2.80;;
17886;SDS011;9069;52.044;7.472;2023-07-28T02:36:03;3.05;;;2.75;;
17886;SDS011;9069;52.044;7.472;2023-07-28T02:38:31;3.53;;;3.13;;
17886;SDS011;9069;52.044;7.472;2023-07-28T02:40:58;4.50;;;2.80;;
17886;SDS011;9069;52.044;7.472;2023-07-28T02:43:24;4.20;;;2.83;;
17886;SDS011;9069;52.044;7.472;2023-07-28T02:45:54;3.10;;;2.80;;
17886;SDS011;9069;52.044;7.472;2023-07-28T02:48:22;2.80;;;2.55;;
17886;SDS011;9069;52.044;7.472;2023-07-28T02:50:50;2.88;;;2.58;;
17886;SDS011;9069;52.044;7.472;2023-07-28T02:53:17;4.28;;;2.67;;
17886;SDS011;9069;52.044;7.472;2023-07-28T02:55:45;2.95;;;2.60;;
17886;SDS011;9069;52.044;7.472;2023-07-28T02:58:14;8.07;;;2.70;;
17886;SDS011;9069;52.044;7.472;2023-07-28T03:00:42;2.88;;;2.58;;
17886;SDS011;9069;52.044;7.472;2023-07-28T03:03:13;3.05;;;2.75;;
17886;SDS011;9069;52.044;7.472;2023-07-28T03:05:40;3.65;;;2.53;;
17886;SDS011;9069;52.044;7.472;2023-07-28T03:08:25;3.70;;;2.72;;
17886;SDS011;9069;52.044;7.472;2023-07-28T03:11:04;3.83;;;2.92;;
17886;SDS011;9069;52.044;7.472;2023-07-28T03:13:31;3.10;;;2.67;;
17886;SDS011;9069;52.044;7.472;2023-07-28T03:15:58;3.60;;;3.17;;
17886;SDS011;9069;52.044;7.472;2023-07-28T03:18:24;4.97;;;2.60;;
17886;SDS011;9069;52.044;7.472;2023-07-28T03:20:51;3.17;;;2.85;;
17886;SDS011;9069;52.044;7.472;2023-07-28T03:23:18;3.53;;;3.20;;
17886;SDS011;9069;52.044;7.472;2023-07-28T03:25:45;5.18;;;3.15;;
17886;SDS011;9069;52.044;7.472;2023-07-28T03:28:12;4.90;;;3.10;;
17886;SDS011;9069;52.044;7.472;2023-07-28T03:30:38;4.53;;;2.85;;
17886;SDS011;9069;52.044;7.472;2023-07-28T03:33:07;3.53;;;2.97;;
17886;SDS011;9069;52.044;7.472;2023-07-28T03:35:34;5.45;;;3.05;;
17886;SDS011;9069;52.044;7.472;2023-07-28T03:38:07;4.70;;;3.28;;
17886;SDS011;9069;52.044;7.472;2023-07-28T03:40:34;3.35;;;2.78;;
17886;SDS011;9069;52.044;7.472;2023-07-28T03:43:02;4.70;;;3.35;;
17886;SDS011;9069;52.044;7.472;2023-07-28T03:45:29;3.80;;;3.28;;
17886;SDS011;9069;52.044;7.472;2023-07-28T03:47:56;4.32;;;3.30;;
17886;SDS011;9069;52.044;7.472;2023-07-28T03:50:22;4.97;;;3.55;;
17886;SDS011;9069;52.044;7.472;2023-07-28T03:52:50;4.55;;;3.53;;
17886;SDS011;9069;52.044;7.472;2023-07-28T03:55:17;4.00;;;2.97;;
17886;SDS011;9069;52.044;7.472;2023-07-28T03:57:44;9.35;;;3.58;;
17886;SDS011;9069;52.044;7.472;2023-07-28T04:00:11;4.95;;;3.92;;
17886;SDS011;9069;52.044;7.472;2023-07-28T04:02:40;4.93;;;3.75;;
17886;SDS011;9069;52.044;7.472;2023-07-28T04:05:07;5.78;;;3.33;;
17886;SDS011;9069;52.044;7.472;2023-07-28T04:07:34;4.47;;;3.95;;
17886;SDS011;9069;52.044;7.472;2023-07-28T04:10:01;3.88;;;3.47;;
17886;SDS011;9069;52.044;7.472;2023-07-28T04:12:27;3.20;;;2.90;;
17886;SDS011;9069;52.044;7.472;2023-07-28T04:14:55;4.25;;;3.50;;
17886;SDS011;9069;52.044;7.472;2023-07-28T04:17:23;3.63;;;3.25;;
17886;SDS011;9069;52.044;7.472;2023-07-28T04:19:49;5.30;;;3.50;;
17886;SDS011;9069;52.044;7.472;2023-07-28T04:22:16;4.13;;;3.25;;
17886;SDS011;9069;52.044;7.472;2023-07-28T04:24:49;5.50;;;3.20;;
17886;SDS011;9069;52.044;7.472;2023-07-28T04:27:16;3.58;;;3.22;;
17886;SDS011;9069;52.044;7.472;2023-07-28T04:29:43;3.67;;;2.95;;
17886;SDS011;9069;52.044;7.472;2023-07-28T04:32:11;4.93;;;3.08;;
17886;SDS011;9069;52.044;7.472;2023-07-28T04:34:38;4.82;;;3.30;;
17886;SDS011;9069;52.044;7.472;2023-07-28T04:37:09;4.22;;;3.17;;
17886;SDS011;9069;52.044;7.472;2023-07-28T04:39:50;3.50;;;2.70;;
17886;SDS011;9069;52.044;7.472;2023-07-28T04:42:18;3.83;;;2.90;;
17886;SDS011;9069;52.044;7.472;2023-07-28T04:44:46;3.40;;;3.03;;
17886;SDS011;9069;52.044;7.472;2023-07-28T04:47:14;4.28;;;3.00;;
17886;SDS011;9069;52.044;7.472;2023-07-28T04:49:42;3.63;;;2.70;;
17886;SDS011;9069;52.044;7.472;2023-07-28T04:52:08;4.57;;;3.17;;
17886;SDS011;9069;52.044;7.472;2023-07-28T04:54:38;4.75;;;3.10;;
17886;SDS011;9069;52.044;7.472;2023-07-28T04:57:05;5.07;;;3.60;;
17886;SDS011;9069;52.044;7.472;2023-07-28T04:59:33;4.93;;;3.42;;
17886;SDS011;9069;52.044;7.472;2023-07-28T05:02:00;5.72;;;3.70;;
17886;SDS011;9069;52.044;7.472;2023-07-28T05:04:27;5.65;;;3.30;;
17886;SDS011;9069;52.044;7.472;2023-07-28T05:06:54;5.25;;;3.55;;
17886;SDS011;9069;52.044;7.472;2023-07-28T05:09:21;4.63;;;3.35;;
17886;SDS011;9069;52.044;7.472;2023-07-28T05:11:48;4.00;;;3.58;;
17886;SDS011;9069;52.044;7.472;2023-07-28T05:14:15;4.65;;;3.92;;
17886;SDS011;9069;52.044;7.472;2023-07-28T05:16:42;5.13;;;3.75;;
17886;SDS011;9069;52.044;7.472;2023-07-28T05:19:09;5.45;;;3.38;;
17886;SDS011;9069;52.044;7.472;2023-07-28T05:21:59;4.72;;;3.67;;
17886;SDS011;9069;52.044;7.472;2023-07-28T05:24:38;5.65;;;4.15;;
17886;SDS011;9069;52.044;7.472;2023-07-28T05:27:05;4.63;;;3.90;;
17886;SDS011;9069;52.044;7.472;2023-07-28T05:29:32;8.50;;;3.78;;
17886;SDS011;9069;52.044;7.472;2023-07-28T05:32:03;4.65;;;3.75;;
17886;SDS011;9069;52.044;7.472;2023-07-28T05:34:43;6.72;;;3.95;;
17886;SDS011;9069;52.044;7.472;2023-07-28T05:37:10;8.00;;;4.68;;
17886;SDS011;9069;52.044;7.472;2023-07-28T05:39:37;7.05;;;4.15;;
17886;SDS011;9069;52.044;7.472;2023-07-28T05:42:04;5.20;;;4.07;;
17886;SDS011;9069;52.044;7.472;2023-07-28T05:44:31;4.53;;;3.33;;
17886;SDS011;9069;52.044;7.472;2023-07-28T05:46:58;7.00;;;4.53;;
17886;SDS011;9069;52.044;7.472;2023-07-28T05:49:25;5.35;;;3.92;;
17886;SDS011;9069;52.044;7.472;2023-07-28T05:51:52;5.32;;;3.78;;
17886;SDS011;9069;52.044;7.472;2023-07-28T05:54:19;6.32;;;4.22;;
17886;SDS011;9069;52.044;7.472;2023-07-28T05:56:45;6.05;;;4.25;;
17886;SDS011;9069;52.044;7.472;2023-07-28T05:59:12;6.57;;;4.15;;
17886;SDS011;9069;52.044;7.472;2023-07-28T06:01:39;8.27;;;3.65;;
17886;SDS011;9069;52.044;7.472;2023-07-28T06:04:32;5.43;;;3.78;;
17886;SDS011;9069;52.044;7.472;2023-07-28T06:07:01;5.07;;;3.78;;
17886;SDS011;9069;52.044;7.472;2023-07-28T06:09:28;5.75;;;3.70;;
17886;SDS011;9069;52.044;7.472;2023-07-28T06:11:55;4.43;;;3.53;;
17886;SDS011;9069;52.044;7.472;2023-07-28T06:14:25;5.15;;;3.90;;
17886;SDS011;9069;52.044;7.472;2023-07-28T06:16:53;5.90;;;3.65;;
17886;SDS011;9069;52.044;7.472;2023-07-28T06:19:22;5.03;;;3.63;;
17886;SDS011;9069;52.044;7.472;2023-07-28T06:21:51;4.82;;;3.42;;
17886;SDS011;9069;52.044;7.472;2023-07-28T06:24:18;4.45;;;3.47;;
17886;SDS011;9069;52.044;7.472;2023-07-28T06:26:45;4.90;;;3.58;;
17886;SDS011;9069;52.044;7.472;2023-07-28T06:29:12;6.13;;;3.78;;
17886;SDS011;9069;52.044;7.472;2023-07-28T06:31:39;5.85;;;3.70;;
17886;SDS011;9069;52.044;7.472;2023-07-28T06:34:06;5.40;;;4.13;;
17886;SDS011;9069;52.044;7.472;2023-07-28T06:36:33;6.50;;;3.83;;
17886;SDS011;9069;52.044;7.472;2023-07-28T06:38:59;4.72;;;3.45;;
17886;SDS011;9069;52.044;7.472;2023-07-28T06:41:26;5.88;;;4.03;;
17886;SDS011;9069;52.044;7.472;2023-07-28T06:43:58;5.93;;;3.67;;
17886;SDS011;9069;52.044;7.472;2023-07-28T06:46:25;5.20;;;3.85;;
17886;SDS011;9069;52.044;7.472;2023-07-28T06:48:52;5.93;;;4.03;;
17886;SDS011;9069;52.044;7.472;2023-07-28T06:51:19;5.10;;;3.90;;
17886;SDS011;9069;52.044;7.472;2023-07-28T06:53:46;6.18;;;4.05;;
17886;SDS011;9069;52.044;7.472;2023-07-28T06:56:12;5.13;;;4.00;;
17886;SDS011;9069;52.044;7.472;2023-07-28T06:58:39;5.13;;;3.58;;
17886;SDS011;9069;52.044;7.472;2023-07-28T07:01:06;6.93;;;4.10;;
17886;SDS011;9069;52.044;7.472;2023-07-28T07:03:37;5.43;;;4.13;;
17886;SDS011;9069;52.044;7.472;2023-07-28T07:06:03;6.35;;;4.30;;
17886;SDS011;9069;52.044;7.472;2023-07-28T07:08:30;7.90;;;3.83;;
17886;SDS011;9069;52.044;7.472;2023-07-28T07:10:57;5.38;;;4.07;;
17886;SDS011;9069;52.044;7.472;2023-07-28T07:13:24;5.25;;;4.28;;
17886;SDS011;9069;52.044;7.472;2023-07-28T07:15:50;7.63;;;4.25;;
17886;SDS011;9069;52.044;7.472;2023-07-28T07:18:17;7.35;;;4.25;;
17886;SDS011;9069;52.044;7.472;2023-07-28T07:20:44;18.23;;;5.00;;
17886;SDS011;9069;52.044;7.472;2023-07-28T07:23:11;9.27;;;4.32;;
17886;SDS011;9069;52.044;7.472;2023-07-28T07:25:38;5.85;;;4.30;;
17886;SDS011;9069;52.044;7.472;2023-07-28T07:28:05;7.63;;;4.60;;
17886;SDS011;9069;52.044;7.472;2023-07-28T07:30:32;5.40;;;4.55;;
17886;SDS011;9069;52.044;7.472;2023-07-28T07:33:02;6.20;;;4.47;;
17886;SDS011;9069;52.044;7.472;2023-07-28T07:35:29;5.68;;;4.40;;
17886;SDS011;9069;52.044;7.472;2023-07-28T07:37:56;7.07;;;4.88;;
17886;SDS011;9069;52.044;7.472;2023-07-28T07:40:22;7.85;;;4.15;;
17886;SDS011;9069;52.044;7.472;2023-07-28T07:42:53;5.82;;;4.20;;
17886;SDS011;9069;52.044;7.472;2023-07-28T07:45:20;8.63;;;5.10;;
17886;SDS011;9069;52.044;7.472;2023-07-28T07:47:47;5.45;;;4.22;;
17886;SDS011;9069;52.044;7.472;2023-07-28T07:50:14;6.82;;;4.55;;
17886;SDS011;9069;52.044;7.472;2023-07-28T07:52:41;5.95;;;4.13;;
17886;SDS011;9069;52.044;7.472;2023-07-28T07:55:09;5.88;;;3.92;;
17886;SDS011;9069;52.044;7.472;2023-07-28T07:57:38;5.22;;;3.75;;
17886;SDS011;9069;52.044;7.472;2023-07-28T08:00:05;4.88;;;3.78;;
17886;SDS011;9069;52.044;7.472;2023-07-28T08:02:37;6.90;;;4.30;;
17886;SDS011;9069;52.044;7.472;2023-07-28T08:05:05;8.15;;;4.78;;
17886;SDS011;9069;52.044;7.472;2023-07-28T08:07:32;7.72;;;4.90;;
17886;SDS011;9069;52.044;7.472;2023-07-28T08:09:58;8.52;;;4.93;;
17886;SDS011;9069;52.044;7.472;2023-07-28T08:12:26;9.30;;;5.20;;
17886;SDS011;9069;52.044;7.472;2023-07-28T08:14:53;9.80;;;5.72;;
17886;SDS011;9069;52.044;7.472;2023-07-28T08:17:22;8.25;;;5.57;;
17886;SDS011;9069;52.044;7.472;2023-07-28T08:19:49;9.23;;;6.22;;
17886;SDS011;9069;52.044;7.472;2023-07-28T08:22:16;9.63;;;5.40;;
17886;SDS011;9069;52.044;7.472;2023-07-28T08:24:42;10.15;;;5.95;;
17886;SDS011;9069;52.044;7.472;2023-07-28T08:27:09;11.18;;;6.10;;
17886;SDS011;9069;52.044;7.472;2023-07-28T08:29:36;12.43;;;7.03;;
17886;SDS011;9069;52.044;7.472;2023-07-28T08:32:02;12.48;;;6.05;;
17886;SDS011;9069;52.044;7.472;2023-07-28T08:34:29;8.65;;;5.72;;
17886;SDS011;9069;52.044;7.472;2023-07-28T08:36:56;9.80;;;6.15;;
17886;SDS011;9069;52.044;7.472;2023-07-28T08:39:23;9.65;;;6.00;;
17886;SDS011;9069;52.044;7.472;2023-07-28T08:41:57;8.30;;;5.70;;
17886;SDS011;9069;52.044;7.472;2023-07-28T08:44:25;10.63;;;6.43;;
17886;SDS011;9069;52.044;7.472;2023-07-28T08:46:52;8.35;;;5.70;;
17886;SDS011;9069;52.044;7.472;2023-07-28T08:49:19;8.55;;;5.63;;
17886;SDS011;9069;52.044;7.472;2023-07-28T08:51:50;9.63;;;6.18;;
17886;SDS011;9069;52.044;7.472;2023-07-28T08:54:18;8.13;;;5.93;;
17886;SDS011;9069;52.044;7.472;2023-07-28T08:56:45;11.70;;;6.10;;
17886;SDS011;9069;52.044;7.472;2023-07-28T08:59:12;8.82;;;5.97;;
17886;SDS011;9069;52.044;7.472;2023-07-28T09:01:46;9.80;;;6.07;;
17886;SDS011;9069;52.044;7.472;2023-07-28T09:04:15;10.23;;;5.57;;
17886;SDS011;9069;52.044;7.472;2023-07-28T09:06:45;8.20;;;5.68;;
17886;SDS011;9069;52.044;7.472;2023-07-28T09:09:13;9.05;;;5.63;;
17886;SDS011;9069;52.044;7.472;2023-07-28T09:11:45;7.85;;;5.80;;
17886;SDS011;9069;52.044;7.472;2023-07-28T09:14:17;9.27;;;5.07;;
17886;SDS011;9069;52.044;7.472;2023-07-28T09:16:45;8.73;;;5.78;;
17886;SDS011;9069;52.044;7.472;2023-07-28T09:19:12;7.93;;;5.85;;
17886;SDS011;9069;52.044;7.472;2023-07-28T09:21:42;8.35;;;4.97;;
17886;SDS011;9069;52.044;7.472;2023-07-28T09:24:10;9.93;;;5.93;;
17886;SDS011;9069;52.044;7.472;2023-07-28T09:29:15;9.93;;;5.82;;
17886;SDS011;9069;52.044;7.472;2023-07-28T09:31:42;7.82;;;5.47;;
17886;SDS011;9069;52.044;7.472;2023-07-28T09:34:13;7.00;;;5.80;;
17886;SDS011;9069;52.044;7.472;2023-07-28T09:37:04;6.00;;;4.65;;
17886;SDS011;9069;52.044;7.472;2023-07-28T09:39:32;7.28;;;5.53;;
17886;SDS011;9069;52.044;7.472;2023-07-28T09:42:01;7.50;;;5.50;;
17886;SDS011;9069;52.044;7.472;2023-07-28T09:44:28;7.68;;;6.18;;
17886;SDS011;9069;52.044;7.472;2023-07-28T09:46:56;13.75;;;6.20;;
17886;SDS011;9069;52.044;7.472;2023-07-28T09:52:07;9.95;;;6.25;;
17886;SDS011;9069;52.044;7.472;2023-07-28T09:54:39;9.88;;;5.63;;
17886;SDS011;9069;52.044;7.472;2023-07-28T09:57:08;8.52;;;5.68;;
17886;SDS011;9069;52.044;7.472;2023-07-28T09:59:42;8.55;;;5.47;;
17886;SDS011;9069;52.044;7.472;2023-07-28T10:02:11;7.78;;;6.10;;
17886;SDS011;9069;52.044;7.472;2023-07-28T10:04:38;8.00;;;5.90;;
17886;SDS011;9069;52.044;7.472;2023-07-28T10:07:05;10.35;;;6.22;;
17886;SDS011;9069;52.044;7.472;2023-07-28T10:09:34;7.60;;;5.25;;
17886;SDS011;9069;52.044;7.472;2023-07-28T10:12:03;8.02;;;5.90;;
17886;SDS011;9069;52.044;7.472;2023-07-28T10:14:31;8.40;;;6.07;;
17886;SDS011;9069;52.044;7.472;2023-07-28T10:17:03;9.00;;;5.88;;
17886;SDS011;9069;52.044;7.472;2023-07-28T10:19:35;8.13;;;6.10;;
17886;SDS011;9069;52.044;7.472;2023-07-28T10:22:07;7.70;;;5.53;;
17886;SDS011;9069;52.044;7.472;2023-07-28T10:24:53;10.82;;;5.65;;
17886;SDS011;9069;52.044;7.472;2023-07-28T10:30:03;8.73;;;6.45;;
17886;SDS011;9069;52.044;7.472;2023-07-28T10:32:36;11.55;;;6.13;;
17886;SDS011;9069;52.044;7.472;2023-07-28T10:37:44;8.40;;;6.03;;
17886;SDS011;9069;52.044;7.472;2023-07-28T10:40:31;7.88;;;6.35;;
17886;SDS011;9069;52.044;7.472;2023-07-28T10:43:03;8.82;;;5.80;;
17886;SDS011;9069;52.044;7.472;2023-07-28T10:45:31;11.13;;;6.18;;
17886;SDS011;9069;52.044;7.472;2023-07-28T10:47:59;7.72;;;6.35;;
17886;SDS011;9069;52.044;7.472;2023-07-28T10:50:27;7.88;;;5.82;;
17886;SDS011;9069;52.044;7.472;2023-07-28T10:52:55;6.68;;;5.13;;
17886;SDS011;9069;52.044;7.472;2023-07-28T10:55:23;7.03;;;5.47;;
17886;SDS011;9069;52.044;7.472;2023-07-28T10:57:52;7.47;;;5.45;;
17886;SDS011;9069;52.044;7.472;2023-07-28T11:00:21;7.97;;;5.78;;
17886;SDS011;9069;52.044;7.472;2023-07-28T11:02:49;8.20;;;5.65;;
17886;SDS011;9069;52.044;7.472;2023-07-28T11:05:24;7.60;;;5.97;;
17886;SDS011;9069;52.044;7.472;2023-07-28T11:07:56;8.52;;;6.13;;
17886;SDS011;9069;52.044;7.472;2023-07-28T11:10:25;8.15;;;5.82;;
17886;SDS011;9069;52.044;7.472;2023-07-28T11:12:56;7.07;;;5.50;;
17886;SDS011;9069;52.044;7.472;2023-07-28T11:15:28;7.40;;;5.63;;
17886;SDS011;9069;52.044;7.472;2023-07-28T11:17:55;11.15;;;6.00;;
17886;SDS011;9069;52.044;7.472;2023-07-28T11:20:23;12.93;;;6.47;;
17886;SDS011;9069;52.044;7.472;2023-07-28T11:22:54;10.40;;;5.78;;
17886;SDS011;9069;52.044;7.472;2023-07-28T11:25:26;7.82;;;6.00;;
17886;SDS011;9069;52.044;7.472;2023-07-28T11:27:54;7.50;;;5.72;;
17886;SDS011;9069;52.044;7.472;2023-07-28T11:30:24;8.20;;;5.25;;
17886;SDS011;9069;52.044;7.472;2023-07-28T11:32:51;7.32;;;5.95;;
17886;SDS011;9069;52.044;7.472;2023-07-28T11:35:19;7.55;;;6.03;;
17886;SDS011;9069;52.044;7.472;2023-07-28T11:37:49;7.80;;;6.20;;
17886;SDS011;9069;52.044;7.472;2023-07-28T11:40:19;9.60;;;6.63;;
17886;SDS011;9069;52.044;7.472;2023-07-28T11:42:48;8.57;;;6.53;;
17886;SDS011;9069;52.044;7.472;2023-07-28T11:45:17;8.10;;;5.95;;
17886;SDS011;9069;52.044;7.472;2023-07-28T11:50:41;8.60;;;6.00;;
17886;SDS011;9069;52.044;7.472;2023-07-28T11:53:09;13.18;;;6.75;;
17886;SDS011;9069;52.044;7.472;2023-07-28T11:55:37;9.27;;;6.32;;
17886;SDS011;9069;52.044;7.472;2023-07-28T11:58:05;11.05;;;7.15;;
17886;SDS011;9069;52.044;7.472;2023-07-28T12:00:36;14.52;;;6.28;;
17886;SDS011;9069;52.044;7.472;2023-07-28T12:03:07;10.30;;;6.50;;
17886;SDS011;9069;52.044;7.472;2023-07-28T12:05:42;13.88;;;6.07;;
17886;SDS011;9069;52.044;7.472;2023-07-28T12:08:34;8.00;;;6.05;;
17886;SDS011;9069;52.044;7.472;2023-07-28T12:11:01;8.13;;;5.20;;
17886;SDS011;9069;52.044;7.472;2023-07-28T12:13:31;6.53;;;5.05;;
17886;SDS011;9069;52.044;7.472;2023-07-28T12:15:58;6.28;;;4.75;;
17886;SDS011;9069;52.044;7.472;2023-07-28T12:18:29;6.80;;;4.82;;
17886;SDS011;9069;52.044;7.472;2023-07-28T12:21:00;10.05;;;4.75;;
17886;SDS011;9069;52.044;7.472;2023-07-28T12:23:27;9.88;;;5.28;;
17886;SDS011;9069;52.044;7.472;2023-07-28T12:25:56;6.22;;;4.78;;
17886;SDS011;9069;52.044;7.472;2023-07-28T12:28:24;7.03;;;5.72;;
17886;SDS011;9069;52.044;7.472;2023-07-28T12:30:52;6.97;;;5.15;;
17886;SDS011;9069;52.044;7.472;2023-07-28T12:33:22;8.00;;;6.05;;
17886;SDS011;9069;52.044;7.472;2023-07-28T12:35:49;10.52;;;5.80;;
17886;SDS011;9069;52.044;7.472;2023-07-28T12:38:18;7.25;;;5.28;;
17886;SDS011;9069;52.044;7.472;2023-07-28T12:40:47;6.32;;;5.20;;
17886;SDS011;9069;52.044;7.472;2023-07-28T12:43:17;5.50;;;4.65;;
17886;SDS011;9069;52.044;7.472;2023-07-28T12:45:47;7.18;;;4.40;;
17886;SDS011;9069;52.044;7.472;2023-07-28T12:48:17;5.72;;;4.25;;
17886;SDS011;9069;52.044;7.472;2023-07-28T12:50:47;5.32;;;4.75;;
17886;SDS011;9069;52.044;7.472;2023-07-28T12:53:15;5.80;;;4.60;;
17886;SDS011;9069;52.044;7.472;2023-07-28T12:55:48;6.45;;;4.50;;
17886;SDS011;9069;52.044;7.472;2023-07-28T12:58:18;6.40;;;4.65;;
17886;SDS011;9069;52.044;7.472;2023-07-28T13:00:48;6.05;;;4.65;;
17886;SDS011;9069;52.044;7.472;2023-07-28T13:03:17;5.72;;;4.22;;
17886;SDS011;9069;52.044;7.472;2023-07-28T13:05:44;5.80;;;4.40;;
17886;SDS011;9069;52.044;7.472;2023-07-28T13:08:14;5.63;;;4.32;;
17886;SDS011;9069;52.044;7.472;2023-07-28T13:10:40;6.70;;;4.68;;
17886;SDS011;9069;52.044;7.472;2023-07-28T13:13:10;5.93;;;4.65;;
17886;SDS011;9069;52.044;7.472;2023-07-28T13:15:39;6.15;;;4.78;;
17886;SDS011;9069;52.044;7.472;2023-07-28T13:18:06;5.85;;;4.43;;
17886;SDS011;9069;52.044;7.472;2023-07-28T13:20:33;7.60;;;4.68;;
17886;SDS011;9069;52.044;7.472;2023-07-28T13:23:00;5.97;;;4.38;;
17886;SDS011;9069;52.044;7.472;2023-07-28T13:25:27;6.90;;;3.72;;
17886;SDS011;9069;52.044;7.472;2023-07-28T13:27:54;3.90;;;3.20;;
17886;SDS011;9069;52.044;7.472;2023-07-28T13:30:21;4.97;;;3.50;;
17886;SDS011;9069;52.044;7.472;2023-07-28T13:32:48;4.43;;;3.30;;
17886;SDS011;9069;52.044;7.472;2023-07-28T13:35:15;3.72;;;2.90;;
17886;SDS011;9069;52.044;7.472;2023-07-28T13:37:42;3.10;;;2.80;;
17886;SDS011;9069;52.044;7.472;2023-07-28T13:40:09;4.10;;;3.05;;
17886;SDS011;9069;52.044;7.472;2023-07-28T13:42:38;4.70;;;3.10;;
17886;SDS011;9069;52.044;7.472;2023-07-28T13:45:06;4.43;;;2.65;;
17886;SDS011;9069;52.044;7.472;2023-07-28T13:47:33;3.40;;;2.75;;
17886;SDS011;9069;52.044;7.472;2023-07-28T13:50:00;2.15;;;1.98;;
17886;SDS011;9069;52.044;7.472;2023-07-28T13:52:27;6.90;;;2.83;;
17886;SDS011;9069;52.044;7.472;2023-07-28T13:54:54;3.88;;;2.25;;
17886;SDS011;9069;52.044;7.472;2023-07-28T13:57:24;2.67;;;2.40;;
17886;SDS011;9069;52.044;7.472;2023-07-28T13:59:51;3.38;;;2.40;;
17886;SDS011;9069;52.044;7.472;2023-07-28T14:02:17;2.17;;;2.00;;
17886;SDS011;9069;52.044;7.472;2023-07-28T14:04:44;2.47;;;1.95;;
17886;SDS011;9069;52.044;7.472;2023-07-28T14:07:11;2.13;;;1.80;;
17886;SDS011;9069;52.044;7.472;2023-07-28T14:09:38;2.35;;;1.80;;
17886;SDS011;9069;52.044;7.472;2023-07-28T14:12:05;3.25;;;1.80;;
17886;SDS011;9069;52.044;7.472;2023-07-28T14:14:32;1.88;;;1.67;;
17886;SDS011;9069;52.044;7.472;2023-07-28T14:16:59;1.50;;;1.40;;
17886;SDS011;9069;52.044;7.472;2023-07-28T14:19:26;3.20;;;1.60;;
17886;SDS011;9069;52.044;7.472;2023-07-28T14:21:53;2.03;;;1.70;;
17886;SDS011;9069;52.044;7.472;2023-07-28T14:24:19;2.33;;;1.60;;
17886;SDS011;9069;52.044;7.472;2023-07-28T14:26:46;4.15;;;1.90;;
17886;SDS011;9069;52.044;7.472;2023-07-28T14:29:13;1.60;;;1.50;;
17886;SDS011;9069;52.044;7.472;2023-07-28T14:31:40;1.85;;;1.40;;
17886;SDS011;9069;52.044;7.472;2023-07-28T14:34:07;1.40;;;1.30;;
17886;SDS011;9069;52.044;7.472;2023-07-28T14:36:33;1.40;;;1.30;;
17886;SDS011;9069;52.044;7.472;2023-07-28T14:39:01;1.52;;;1.23;;
17886;SDS011;9069;52.044;7.472;2023-07-28T14:41:29;1.48;;;1.35;;
17886;SDS011;9069;52.044;7.472;2023-07-28T14:43:56;1.30;;;1.10;;
17886;SDS011;9069;52.044;7.472;2023-07-28T14:46:23;1.20;;;1.10;;
17886;SDS011;9069;52.044;7.472;2023-07-28T14:48:52;4.07;;;2.47;;
17886;SDS011;9069;52.044;7.472;2023-07-28T14:51:19;2.22;;;2.00;;
17886;SDS011;9069;52.044;7.472;2023-07-28T14:53:47;1.40;;;1.30;;
17886;SDS011;9069;52.044;7.472;2023-07-28T14:56:14;1.20;;;1.13;;
17886;SDS011;9069;52.044;7.472;2023-07-28T14:58:42;1.20;;;1.17;;
17886;SDS011;9069;52.044;7.472;2023-07-28T15:01:10;4.28;;;1.27;;
17886;SDS011;9069;52.044;7.472;2023-07-28T15:03:37;4.95;;;3.80;;
17886;SDS011;9069;52.044;7.472;2023-07-28T15:06:05;3.53;;;2.83;;
17886;SDS011;9069;52.044;7.472;2023-07-28T15:08:31;2.40;;;2.05;;
17886;SDS011;9069;52.044;7.472;2023-07-28T15:10:58;5.70;;;4.15;;
17886;SDS011;9069;52.044;7.472;2023-07-28T15:13:26;2.42;;;2.22;;
17886;SDS011;9069;52.044;7.472;2023-07-28T15:15:54;3.65;;;2.08;;
17886;SDS011;9069;52.044;7.472;2023-07-28T15:18:21;2.20;;;1.77;;
17886;SDS011;9069;52.044;7.472;2023-07-28T15:20:47;1.58;;;1.48;;
17886;SDS011;9069;52.044;7.472;2023-07-28T15:23:14;4.00;;;1.65;;
17886;SDS011;9069;52.044;7.472;2023-07-28T15:25:41;1.52;;;1.35;;